sensor_id;sensor_type;location;lat;lon;timestamp;temperature;humidity
39951;DHT22;25629;51.444;-2.606;2023-06-22T00:01:22;18.40;1.00
39951;DHT22;25629;51.444;-2.606;2023-06-22T00:03:48;18.40;1.00
39951;DHT22;25629;51.444;-2.606;2023-06-22T00:06:14;18.40;1.00
39951;DHT22;25629;51.444;-2.606;2023-06-22T00:08:39;18.40;1.00
39951;DHT22;25629;51.444;-2.606;2023-06-22T00:11:05;18.40;1.00
39951;DHT22;25629;51.444;-2.606;2023-06-22T00:13:31;18.30;1.00
39951;DHT22;25629;51.444;-2.606;2023-06-22T00:15:56;18.40;1.00
39951;DHT22;25629;51.444;-2.606;2023-06-22T00:18:22;18.30;1.00
39951;DHT22;25629;51.444;-2.606;2023-06-22T00:20:47;18.30;1.00
39951;DHT22;25629;51.444;-2.606;2023-06-22T00:23:13;18.20;8.30
39951;DHT22;25629;51.444;-2.606;2023-06-22T00:25:41;18.20;11.20
39951;DHT22;25629;51.444;-2.606;2023-06-22T00:28:06;18.20;19.40
39951;DHT22;25629;51.444;-2.606;2023-06-22T00:30:33;18.10;19.40
39951;DHT22;25629;51.444;-2.606;2023-06-22T00:32:59;18.00;23.70
39951;DHT22;25629;51.444;-2.606;2023-06-22T00:35:25;18.00;26.10
39951;DHT22;25629;51.444;-2.606;2023-06-22T00:37:57;18.00;31.00
39951;DHT22;25629;51.444;-2.606;2023-06-22T00:40:29;18.00;32.30
39951;DHT22;25629;51.444;-2.606;2023-06-22T00:42:55;17.90;33.50
39951;DHT22;25629;51.444;-2.606;2023-06-22T00:45:24;17.90;35.20
39951;DHT22;25629;51.444;-2.606;2023-06-22T00:47:50;17.90;38.50
39951;DHT22;25629;51.444;-2.606;2023-06-22T00:50:18;17.90;41.40
39951;DHT22;25629;51.444;-2.606;2023-06-22T00:52:55;17.90;45.40
39951;DHT22;25629;51.444;-2.606;2023-06-22T00:55:22;17.80;48.50
39951;DHT22;25629;51.444;-2.606;2023-06-22T00:57:47;17.70;50.40
39951;DHT22;25629;51.444;-2.606;2023-06-22T01:00:13;17.70;54.60
39951;DHT22;25629;51.444;-2.606;2023-06-22T01:05:27;17.70;59.90
39951;DHT22;25629;51.444;-2.606;2023-06-22T01:10:33;17.60;64.30
39951;DHT22;25629;51.444;-2.606;2023-06-22T01:13:02;17.60;65.20
39951;DHT22;25629;51.444;-2.606;2023-06-22T01:18:24;17.60;71.60
39951;DHT22;25629;51.444;-2.606;2023-06-22T01:20:53;17.60;74.70
39951;DHT22;25629;51.444;-2.606;2023-06-22T01:23:24;17.60;73.40
39951;DHT22;25629;51.444;-2.606;2023-06-22T01:26:08;17.60;75.70
39951;DHT22;25629;51.444;-2.606;2023-06-22T01:31:07;17.60;77.70
39951;DHT22;25629;51.444;-2.606;2023-06-22T01:33:35;17.60;79.70
39951;DHT22;25629;51.444;-2.606;2023-06-22T01:36:02;17.60;76.90
39951;DHT22;25629;51.444;-2.606;2023-06-22T01:38:29;17.50;80.00
39951;DHT22;25629;51.444;-2.606;2023-06-22T01:40:55;17.50;84.20
39951;DHT22;25629;51.444;-2.606;2023-06-22T01:43:22;17.50;83.90
39951;DHT22;25629;51.444;-2.606;2023-06-22T01:45:49;17.50;84.50
39951;DHT22;25629;51.444;-2.606;2023-06-22T01:48:15;17.50;86.40
39951;DHT22;25629;51.444;-2.606;2023-06-22T01:50:41;17.60;87.40
39951;DHT22;25629;51.444;-2.606;2023-06-22T01:53:07;17.50;85.50
39951;DHT22;25629;51.444;-2.606;2023-06-22T01:55:32;17.50;87.80
39951;DHT22;25629;51.444;-2.606;2023-06-22T01:57:58;17.50;86.90
39951;DHT22;25629;51.444;-2.606;2023-06-22T02:00:23;17.50;89.70
39951;DHT22;25629;51.444;-2.606;2023-06-22T02:02:56;17.50;90.20
39951;DHT22;25629;51.444;-2.606;2023-06-22T02:05:23;17.60;90.40
39951;DHT22;25629;51.444;-2.606;2023-06-22T02:07:56;17.60;90.00
39951;DHT22;25629;51.444;-2.606;2023-06-22T02:10:24;17.60;90.70
39951;DHT22;25629;51.444;-2.606;2023-06-22T02:12:50;17.60;90.60
39951;DHT22;25629;51.444;-2.606;2023-06-22T02:15:16;17.60;90.80
39951;DHT22;25629;51.444;-2.606;2023-06-22T02:17:42;17.60;90.70
39951;DHT22;25629;51.444;-2.606;2023-06-22T02:20:13;17.60;90.90
39951;DHT22;25629;51.444;-2.606;2023-06-22T02:22:39;17.60;90.40
39951;DHT22;25629;51.444;-2.606;2023-06-22T02:25:05;17.60;90.90
39951;DHT22;25629;51.444;-2.606;2023-06-22T02:27:30;17.60;90.00
39951;DHT22;25629;51.444;-2.606;2023-06-22T02:29:56;17.70;90.30
39951;DHT22;25629;51.444;-2.606;2023-06-22T02:32:22;17.70;89.40
39951;DHT22;25629;51.444;-2.606;2023-06-22T02:34:47;17.70;89.60
39951;DHT22;25629;51.444;-2.606;2023-06-22T02:37:13;17.70;90.60
39951;DHT22;25629;51.444;-2.606;2023-06-22T02:39:40;17.60;91.00
39951;DHT22;25629;51.444;-2.606;2023-06-22T02:42:06;17.60;91.50
39951;DHT22;25629;51.444;-2.606;2023-06-22T02:44:31;17.60;91.20
39951;DHT22;25629;51.444;-2.606;2023-06-22T02:46:57;17.60;91.50
39951;DHT22;25629;51.444;-2.606;2023-06-22T02:49:23;17.60;91.50
39951;DHT22;25629;51.444;-2.606;2023-06-22T02:51:48;17.50;91.80
39951;DHT22;25629;51.444;-2.606;2023-06-22T02:54:14;17.60;92.30
39951;DHT22;25629;51.444;-2.606;2023-06-22T02:56:40;17.50;92.40
39951;DHT22;25629;51.444;-2.606;2023-06-22T02:59:06;17.50;93.30
39951;DHT22;25629;51.444;-2.606;2023-06-22T03:01:31;17.50;93.30
39951;DHT22;25629;51.444;-2.606;2023-06-22T03:04:03;17.50;93.20
39951;DHT22;25629;51.444;-2.606;2023-06-22T03:06:29;17.50;93.70
39951;DHT22;25629;51.444;-2.606;2023-06-22T03:08:58;17.50;94.40
39951;DHT22;25629;51.444;-2.606;2023-06-22T03:11:24;17.50;94.50
39951;DHT22;25629;51.444;-2.606;2023-06-22T03:13:49;17.50;94.30
39951;DHT22;25629;51.444;-2.606;2023-06-22T03:16:17;17.50;94.90
39951;DHT22;25629;51.444;-2.606;2023-06-22T03:18:43;17.50;94.50
39951;DHT22;25629;51.444;-2.606;2023-06-22T03:21:09;17.50;94.80
39951;DHT22;25629;51.444;-2.606;2023-06-22T03:23:34;17.50;95.70
39951;DHT22;25629;51.444;-2.606;2023-06-22T03:26:00;17.50;95.70
39951;DHT22;25629;51.444;-2.606;2023-06-22T03:28:25;17.50;96.00
39951;DHT22;25629;51.444;-2.606;2023-06-22T03:30:51;17.50;95.40
39951;DHT22;25629;51.444;-2.606;2023-06-22T03:33:16;17.50;95.60
39951;DHT22;25629;51.444;-2.606;2023-06-22T03:35:42;17.40;95.10
39951;DHT22;25629;51.444;-2.606;2023-06-22T03:38:08;17.40;95.60
39951;DHT22;25629;51.444;-2.606;2023-06-22T03:40:33;17.40;96.00
39951;DHT22;25629;51.444;-2.606;2023-06-22T03:42:59;17.40;95.90
39951;DHT22;25629;51.444;-2.606;2023-06-22T03:45:24;17.30;96.60
39951;DHT22;25629;51.444;-2.606;2023-06-22T03:47:50;17.30;96.90
39951;DHT22;25629;51.444;-2.606;2023-06-22T03:50:15;17.30;96.70
39951;DHT22;25629;51.444;-2.606;2023-06-22T03:52:41;17.20;97.10
39951;DHT22;25629;51.444;-2.606;2023-06-22T03:55:07;17.20;97.60
39951;DHT22;25629;51.444;-2.606;2023-06-22T03:57:32;17.20;97.40
39951;DHT22;25629;51.444;-2.606;2023-06-22T03:59:58;17.20;97.00
39951;DHT22;25629;51.444;-2.606;2023-06-22T04:02:24;17.20;97.20
39951;DHT22;25629;51.444;-2.606;2023-06-22T04:04:50;17.20;97.70
39951;DHT22;25629;51.444;-2.606;2023-06-22T04:07:15;17.20;97.10
39951;DHT22;25629;51.444;-2.606;2023-06-22T04:09:41;17.20;97.40
39951;DHT22;25629;51.444;-2.606;2023-06-22T04:12:06;17.10;97.40
39951;DHT22;25629;51.444;-2.606;2023-06-22T04:14:32;17.10;98.00
39951;DHT22;25629;51.444;-2.606;2023-06-22T04:16:58;17.10;97.30
39951;DHT22;25629;51.444;-2.606;2023-06-22T04:19:24;17.10;98.10
39951;DHT22;25629;51.444;-2.606;2023-06-22T04:21:49;17.10;98.60
39951;DHT22;25629;51.444;-2.606;2023-06-22T04:24:15;17.10;97.20
39951;DHT22;25629;51.444;-2.606;2023-06-22T04:26:40;17.20;98.20
39951;DHT22;25629;51.444;-2.606;2023-06-22T04:29:11;17.20;97.10
39951;DHT22;25629;51.444;-2.606;2023-06-22T04:31:36;17.20;97.70
39951;DHT22;25629;51.444;-2.606;2023-06-22T04:34:03;17.10;98.00
39951;DHT22;25629;51.444;-2.606;2023-06-22T04:36:35;17.20;97.90
39951;DHT22;25629;51.444;-2.606;2023-06-22T04:39:06;17.20;97.70
39951;DHT22;25629;51.444;-2.606;2023-06-22T04:41:32;17.10;97.20
39951;DHT22;25629;51.444;-2.606;2023-06-22T04:44:07;17.20;97.90
39951;DHT22;25629;51.444;-2.606;2023-06-22T04:46:33;17.20;96.80
39951;DHT22;25629;51.444;-2.606;2023-06-22T04:49:06;17.20;96.90
39951;DHT22;25629;51.444;-2.606;2023-06-22T04:51:41;17.20;96.90
39951;DHT22;25629;51.444;-2.606;2023-06-22T04:54:07;17.20;97.50
39951;DHT22;25629;51.444;-2.606;2023-06-22T04:56:33;17.20;97.20
39951;DHT22;25629;51.444;-2.606;2023-06-22T04:58:59;17.10;97.30
39951;DHT22;25629;51.444;-2.606;2023-06-22T05:01:25;17.20;97.80
39951;DHT22;25629;51.444;-2.606;2023-06-22T05:03:50;17.20;97.60
39951;DHT22;25629;51.444;-2.606;2023-06-22T05:06:21;17.20;97.80
39951;DHT22;25629;51.444;-2.606;2023-06-22T05:08:47;17.30;97.70
39951;DHT22;25629;51.444;-2.606;2023-06-22T05:11:12;17.40;97.40
39951;DHT22;25629;51.444;-2.606;2023-06-22T05:13:38;17.30;95.40
39951;DHT22;25629;51.444;-2.606;2023-06-22T05:16:03;17.40;96.00
39951;DHT22;25629;51.444;-2.606;2023-06-22T05:18:31;17.40;95.20
39951;DHT22;25629;51.444;-2.606;2023-06-22T05:20:57;17.40;95.10
39951;DHT22;25629;51.444;-2.606;2023-06-22T05:23:23;17.50;95.00
39951;DHT22;25629;51.444;-2.606;2023-06-22T05:25:48;17.50;95.20
39951;DHT22;25629;51.444;-2.606;2023-06-22T05:28:14;17.50;95.50
39951;DHT22;25629;51.444;-2.606;2023-06-22T05:30:39;17.50;95.40
39951;DHT22;25629;51.444;-2.606;2023-06-22T05:33:05;17.60;95.00
39951;DHT22;25629;51.444;-2.606;2023-06-22T05:35:30;17.60;94.20
39951;DHT22;25629;51.444;-2.606;2023-06-22T05:37:56;17.60;94.40
39951;DHT22;25629;51.444;-2.606;2023-06-22T05:40:22;17.60;94.80
39951;DHT22;25629;51.444;-2.606;2023-06-22T05:42:47;17.70;95.00
39951;DHT22;25629;51.444;-2.606;2023-06-22T05:45:13;17.80;94.10
39951;DHT22;25629;51.444;-2.606;2023-06-22T05:47:38;17.90;92.00
39951;DHT22;25629;51.444;-2.606;2023-06-22T05:50:04;17.90;92.00
39951;DHT22;25629;51.444;-2.606;2023-06-22T05:52:32;18.00;91.20
39951;DHT22;25629;51.444;-2.606;2023-06-22T05:54:58;18.00;90.00
39951;DHT22;25629;51.444;-2.606;2023-06-22T05:57:23;18.10;86.40
39951;DHT22;25629;51.444;-2.606;2023-06-22T05:59:49;18.20;85.70
39951;DHT22;25629;51.444;-2.606;2023-06-22T06:02:14;18.20;87.60
39951;DHT22;25629;51.444;-2.606;2023-06-22T06:04:40;18.30;85.80
39951;DHT22;25629;51.444;-2.606;2023-06-22T06:07:05;18.30;83.80
39951;DHT22;25629;51.444;-2.606;2023-06-22T06:09:31;18.40;76.50
39951;DHT22;25629;51.444;-2.606;2023-06-22T06:11:57;18.50;65.60
39951;DHT22;25629;51.444;-2.606;2023-06-22T06:14:22;18.60;62.10
39951;DHT22;25629;51.444;-2.606;2023-06-22T06:16:48;18.60;59.70
39951;DHT22;25629;51.444;-2.606;2023-06-22T06:19:14;18.70;62.20
39951;DHT22;25629;51.444;-2.606;2023-06-22T06:21:40;18.80;49.00
39951;DHT22;25629;51.444;-2.606;2023-06-22T06:24:05;18.90;40.30
39951;DHT22;25629;51.444;-2.606;2023-06-22T06:26:31;19.00;27.50
39951;DHT22;25629;51.444;-2.606;2023-06-22T06:28:59;19.10;20.10
39951;DHT22;25629;51.444;-2.606;2023-06-22T06:31:25;19.10;17.60
39951;DHT22;25629;51.444;-2.606;2023-06-22T06:33:54;19.20;16.50
39951;DHT22;25629;51.444;-2.606;2023-06-22T06:36:19;19.40;1.00
39951;DHT22;25629;51.444;-2.606;2023-06-22T06:38:45;19.50;1.00
39951;DHT22;25629;51.444;-2.606;2023-06-22T06:41:13;19.60;1.00
39951;DHT22;25629;51.444;-2.606;2023-06-22T06:43:38;19.70;99.90
39951;DHT22;25629;51.444;-2.606;2023-06-22T06:46:04;19.70;99.90
39951;DHT22;25629;51.444;-2.606;2023-06-22T06:48:29;19.80;99.90
39951;DHT22;25629;51.444;-2.606;2023-06-22T06:50:55;19.80;99.90
39951;DHT22;25629;51.444;-2.606;2023-06-22T06:53:21;19.80;99.90
39951;DHT22;25629;51.444;-2.606;2023-06-22T06:55:46;19.80;99.90
39951;DHT22;25629;51.444;-2.606;2023-06-22T06:58:12;19.90;27.00
39951;DHT22;25629;51.444;-2.606;2023-06-22T07:00:38;19.90;99.90
39951;DHT22;25629;51.444;-2.606;2023-06-22T07:03:04;20.10;22.70
39951;DHT22;25629;51.444;-2.606;2023-06-22T07:05:30;20.30;99.90
39951;DHT22;25629;51.444;-2.606;2023-06-22T07:07:56;20.50;99.90
39951;DHT22;25629;51.444;-2.606;2023-06-22T07:10:21;20.60;1.00
39951;DHT22;25629;51.444;-2.606;2023-06-22T07:12:47;20.80;41.70
39951;DHT22;25629;51.444;-2.606;2023-06-22T07:15:13;20.90;1.00
39951;DHT22;25629;51.444;-2.606;2023-06-22T07:17:39;21.00;99.90
39951;DHT22;25629;51.444;-2.606;2023-06-22T07:20:06;21.20;99.90
39951;DHT22;25629;51.444;-2.606;2023-06-22T07:22:42;21.30;99.90
39951;DHT22;25629;51.444;-2.606;2023-06-22T07:25:08;21.30;78.20
39951;DHT22;25629;51.444;-2.606;2023-06-22T07:27:43;21.40;1.00
39951;DHT22;25629;51.444;-2.606;2023-06-22T07:30:09;21.40;1.00
39951;DHT22;25629;51.444;-2.606;2023-06-22T07:32:35;21.40;1.00
39951;DHT22;25629;51.444;-2.606;2023-06-22T07:35:01;21.40;1.00
39951;DHT22;25629;51.444;-2.606;2023-06-22T07:37:30;21.50;1.00
39951;DHT22;25629;51.444;-2.606;2023-06-22T07:39:56;21.60;1.00
39951;DHT22;25629;51.444;-2.606;2023-06-22T07:42:25;21.80;1.00
39951;DHT22;25629;51.444;-2.606;2023-06-22T07:44:51;21.90;99.90
39951;DHT22;25629;51.444;-2.606;2023-06-22T07:47:16;22.10;99.90
39951;DHT22;25629;51.444;-2.606;2023-06-22T07:49:44;22.20;99.90
39951;DHT22;25629;51.444;-2.606;2023-06-22T07:52:10;22.20;99.90
39951;DHT22;25629;51.444;-2.606;2023-06-22T07:54:36;22.20;99.90
39951;DHT22;25629;51.444;-2.606;2023-06-22T07:57:02;22.30;99.90
39951;DHT22;25629;51.444;-2.606;2023-06-22T07:59:28;22.40;99.90
39951;DHT22;25629;51.444;-2.606;2023-06-22T08:01:54;22.50;99.90
39951;DHT22;25629;51.444;-2.606;2023-06-22T08:04:20;22.70;99.90
39951;DHT22;25629;51.444;-2.606;2023-06-22T08:06:45;22.70;99.90
39951;DHT22;25629;51.444;-2.606;2023-06-22T08:09:11;22.80;99.90
39951;DHT22;25629;51.444;-2.606;2023-06-22T08:11:37;22.90;99.90
39951;DHT22;25629;51.444;-2.606;2023-06-22T08:14:03;23.00;99.90
39951;DHT22;25629;51.444;-2.606;2023-06-22T08:16:28;23.30;99.90
39951;DHT22;25629;51.444;-2.606;2023-06-22T08:18:54;23.50;99.90
39951;DHT22;25629;51.444;-2.606;2023-06-22T08:21:20;23.60;99.90
39951;DHT22;25629;51.444;-2.606;2023-06-22T08:23:45;23.60;99.90
39951;DHT22;25629;51.444;-2.606;2023-06-22T08:26:11;23.60;99.90
39951;DHT22;25629;51.444;-2.606;2023-06-22T08:28:37;23.50;99.90
39951;DHT22;25629;51.444;-2.606;2023-06-22T08:31:02;23.40;99.90
39951;DHT22;25629;51.444;-2.606;2023-06-22T08:33:29;23.40;99.90
39951;DHT22;25629;51.444;-2.606;2023-06-22T08:35:55;23.20;99.90
39951;DHT22;25629;51.444;-2.606;2023-06-22T08:38:21;23.30;99.90
39951;DHT22;25629;51.444;-2.606;2023-06-22T08:40:47;23.70;99.90
39951;DHT22;25629;51.444;-2.606;2023-06-22T08:43:12;24.10;99.90
39951;DHT22;25629;51.444;-2.606;2023-06-22T08:45:38;24.10;99.90
39951;DHT22;25629;51.444;-2.606;2023-06-22T08:48:03;24.30;99.90
39951;DHT22;25629;51.444;-2.606;2023-06-22T08:50:29;24.50;99.90
39951;DHT22;25629;51.444;-2.606;2023-06-22T08:52:55;24.50;99.90
39951;DHT22;25629;51.444;-2.606;2023-06-22T08:55:20;24.60;99.90
39951;DHT22;25629;51.444;-2.606;2023-06-22T08:57:46;24.70;99.90
39951;DHT22;25629;51.444;-2.606;2023-06-22T09:00:12;24.70;99.90
39951;DHT22;25629;51.444;-2.606;2023-06-22T09:02:45;24.60;99.90
39951;DHT22;25629;51.444;-2.606;2023-06-22T09:05:11;24.70;99.90
39951;DHT22;25629;51.444;-2.606;2023-06-22T09:07:37;24.80;99.90
39951;DHT22;25629;51.444;-2.606;2023-06-22T09:10:03;24.90;99.90
39951;DHT22;25629;51.444;-2.606;2023-06-22T09:12:32;25.00;99.90
39951;DHT22;25629;51.444;-2.606;2023-06-22T09:14:58;24.90;99.90
39951;DHT22;25629;51.444;-2.606;2023-06-22T09:17:25;25.10;99.90
39951;DHT22;25629;51.444;-2.606;2023-06-22T09:19:51;25.40;99.90
39951;DHT22;25629;51.444;-2.606;2023-06-22T09:22:16;25.40;99.90
39951;DHT22;25629;51.444;-2.606;2023-06-22T09:24:42;25.30;99.90
39951;DHT22;25629;51.444;-2.606;2023-06-22T09:27:08;25.30;99.90
39951;DHT22;25629;51.444;-2.606;2023-06-22T09:29:33;25.20;99.90
39951;DHT22;25629;51.444;-2.606;2023-06-22T09:32:01;24.70;99.90
39951;DHT22;25629;51.444;-2.606;2023-06-22T09:34:27;24.50;99.90
39951;DHT22;25629;51.444;-2.606;2023-06-22T09:36:53;24.60;99.90
39951;DHT22;25629;51.444;-2.606;2023-06-22T09:39:18;24.80;99.90
39951;DHT22;25629;51.444;-2.606;2023-06-22T09:41:44;25.10;99.90
39951;DHT22;25629;51.444;-2.606;2023-06-22T09:44:09;25.50;99.90
39951;DHT22;25629;51.444;-2.606;2023-06-22T09:46:35;25.90;99.90
39951;DHT22;25629;51.444;-2.606;2023-06-22T09:49:01;26.30;99.90
39951;DHT22;25629;51.444;-2.606;2023-06-22T09:51:26;26.20;99.90
39951;DHT22;25629;51.444;-2.606;2023-06-22T09:53:52;26.10;99.90
39951;DHT22;25629;51.444;-2.606;2023-06-22T09:56:19;25.90;99.90
39951;DHT22;25629;51.444;-2.606;2023-06-22T09:58:45;26.00;99.90
39951;DHT22;25629;51.444;-2.606;2023-06-22T10:01:11;25.90;99.90
39951;DHT22;25629;51.444;-2.606;2023-06-22T10:03:37;25.50;99.90
39951;DHT22;25629;51.444;-2.606;2023-06-22T10:06:03;25.60;99.90
39951;DHT22;25629;51.444;-2.606;2023-06-22T10:08:29;25.90;99.90
39951;DHT22;25629;51.444;-2.606;2023-06-22T10:10:54;26.40;99.90
39951;DHT22;25629;51.444;-2.606;2023-06-22T10:13:20;26.70;99.90
39951;DHT22;25629;51.444;-2.606;2023-06-22T10:15:45;26.90;99.90
39951;DHT22;25629;51.444;-2.606;2023-06-22T10:18:15;26.90;99.90
39951;DHT22;25629;51.444;-2.606;2023-06-22T10:20:41;27.00;99.90
39951;DHT22;25629;51.444;-2.606;2023-06-22T10:23:06;27.20;99.90
39951;DHT22;25629;51.444;-2.606;2023-06-22T10:25:32;27.20;99.90
39951;DHT22;25629;51.444;-2.606;2023-06-22T10:27:58;27.10;99.90
39951;DHT22;25629;51.444;-2.606;2023-06-22T10:30:23;27.30;99.90
39951;DHT22;25629;51.444;-2.606;2023-06-22T10:32:49;27.90;99.90
39951;DHT22;25629;51.444;-2.606;2023-06-22T10:35:14;28.30;99.90
39951;DHT22;25629;51.444;-2.606;2023-06-22T10:37:44;28.10;99.90
39951;DHT22;25629;51.444;-2.606;2023-06-22T10:40:11;28.00;99.90
39951;DHT22;25629;51.444;-2.606;2023-06-22T10:42:37;28.20;99.90
39951;DHT22;25629;51.444;-2.606;2023-06-22T10:45:03;28.40;99.90
39951;DHT22;25629;51.444;-2.606;2023-06-22T10:47:29;28.60;99.90
39951;DHT22;25629;51.444;-2.606;2023-06-22T10:49:54;28.40;99.90
39951;DHT22;25629;51.444;-2.606;2023-06-22T10:52:20;28.40;99.90
39951;DHT22;25629;51.444;-2.606;2023-06-22T10:54:45;28.40;99.90
39951;DHT22;25629;51.444;-2.606;2023-06-22T10:57:11;28.50;99.90
39951;DHT22;25629;51.444;-2.606;2023-06-22T10:59:36;28.80;99.90
39951;DHT22;25629;51.444;-2.606;2023-06-22T11:02:02;28.80;99.90
39951;DHT22;25629;51.444;-2.606;2023-06-22T11:04:27;28.80;99.90
39951;DHT22;25629;51.444;-2.606;2023-06-22T11:06:53;28.70;99.90
39951;DHT22;25629;51.444;-2.606;2023-06-22T11:09:18;28.70;99.90
39951;DHT22;25629;51.444;-2.606;2023-06-22T11:11:47;28.70;99.90
39951;DHT22;25629;51.444;-2.606;2023-06-22T11:14:12;28.90;99.90
39951;DHT22;25629;51.444;-2.606;2023-06-22T11:16:38;29.10;99.90
39951;DHT22;25629;51.444;-2.606;2023-06-22T11:19:04;29.30;99.90
39951;DHT22;25629;51.444;-2.606;2023-06-22T11:21:30;29.40;99.90
39951;DHT22;25629;51.444;-2.606;2023-06-22T11:23:56;29.20;99.90
39951;DHT22;25629;51.444;-2.606;2023-06-22T11:26:22;29.00;99.90
39951;DHT22;25629;51.444;-2.606;2023-06-22T11:28:48;28.90;99.90
39951;DHT22;25629;51.444;-2.606;2023-06-22T11:31:13;29.10;99.90
39951;DHT22;25629;51.444;-2.606;2023-06-22T11:33:39;29.30;99.90
39951;DHT22;25629;51.444;-2.606;2023-06-22T11:36:05;29.20;99.90
39951;DHT22;25629;51.444;-2.606;2023-06-22T11:38:30;29.20;99.90
39951;DHT22;25629;51.444;-2.606;2023-06-22T11:40:57;29.30;99.90
39951;DHT22;25629;51.444;-2.606;2023-06-22T11:43:23;29.40;99.90
39951;DHT22;25629;51.444;-2.606;2023-06-22T11:45:49;29.30;99.90
39951;DHT22;25629;51.444;-2.606;2023-06-22T11:48:14;29.00;99.90
39951;DHT22;25629;51.444;-2.606;2023-06-22T11:50:40;29.00;99.90
39951;DHT22;25629;51.444;-2.606;2023-06-22T11:53:06;29.10;99.90
39951;DHT22;25629;51.444;-2.606;2023-06-22T11:55:31;29.20;99.90
39951;DHT22;25629;51.444;-2.606;2023-06-22T11:57:57;29.20;99.90
39951;DHT22;25629;51.444;-2.606;2023-06-22T12:00:25;29.20;99.90
39951;DHT22;25629;51.444;-2.606;2023-06-22T12:02:51;29.40;99.90
39951;DHT22;25629;51.444;-2.606;2023-06-22T12:05:20;29.40;99.90
39951;DHT22;25629;51.444;-2.606;2023-06-22T12:07:46;29.30;99.90
39951;DHT22;25629;51.444;-2.606;2023-06-22T12:10:12;29.10;99.90
39951;DHT22;25629;51.444;-2.606;2023-06-22T12:12:37;28.90;99.90
39951;DHT22;25629;51.444;-2.606;2023-06-22T12:15:03;29.30;99.90
39951;DHT22;25629;51.444;-2.606;2023-06-22T12:17:29;29.50;99.90
39951;DHT22;25629;51.444;-2.606;2023-06-22T12:19:55;29.60;99.90
39951;DHT22;25629;51.444;-2.606;2023-06-22T12:22:21;29.40;99.90
39951;DHT22;25629;51.444;-2.606;2023-06-22T12:24:46;28.80;99.90
39951;DHT22;25629;51.444;-2.606;2023-06-22T12:27:12;28.50;99.90
39951;DHT22;25629;51.444;-2.606;2023-06-22T12:29:38;28.80;99.90
39951;DHT22;25629;51.444;-2.606;2023-06-22T12:32:03;29.20;99.90
39951;DHT22;25629;51.444;-2.606;2023-06-22T12:34:29;29.40;99.90
39951;DHT22;25629;51.444;-2.606;2023-06-22T12:36:55;29.60;99.90
39951;DHT22;25629;51.444;-2.606;2023-06-22T12:39:20;29.90;99.90
39951;DHT22;25629;51.444;-2.606;2023-06-22T12:41:46;30.40;99.90
39951;DHT22;25629;51.444;-2.606;2023-06-22T12:44:11;30.50;99.90
39951;DHT22;25629;51.444;-2.606;2023-06-22T12:46:37;30.20;99.90
39951;DHT22;25629;51.444;-2.606;2023-06-22T12:49:04;29.50;99.90
39951;DHT22;25629;51.444;-2.606;2023-06-22T12:51:30;29.70;99.90
39951;DHT22;25629;51.444;-2.606;2023-06-22T12:53:55;30.00;99.90
39951;DHT22;25629;51.444;-2.606;2023-06-22T12:56:21;30.30;99.90
39951;DHT22;25629;51.444;-2.606;2023-06-22T12:58:47;30.40;99.90
39951;DHT22;25629;51.444;-2.606;2023-06-22T13:01:12;30.70;99.90
39951;DHT22;25629;51.444;-2.606;2023-06-22T13:03:38;30.50;99.90
39951;DHT22;25629;51.444;-2.606;2023-06-22T13:06:04;30.80;99.90
39951;DHT22;25629;51.444;-2.606;2023-06-22T13:08:29;30.80;99.90
39951;DHT22;25629;51.444;-2.606;2023-06-22T13:10:55;30.90;99.90
39951;DHT22;25629;51.444;-2.606;2023-06-22T13:13:24;30.90;99.90
39951;DHT22;25629;51.444;-2.606;2023-06-22T13:15:51;30.70;99.90
39951;DHT22;25629;51.444;-2.606;2023-06-22T13:18:18;30.90;99.90
39951;DHT22;25629;51.444;-2.606;2023-06-22T13:20:43;30.90;99.90
39951;DHT22;25629;51.444;-2.606;2023-06-22T13:23:10;30.90;99.90
39951;DHT22;25629;51.444;-2.606;2023-06-22T13:25:36;31.20;99.90
39951;DHT22;25629;51.444;-2.606;2023-06-22T13:28:02;31.40;99.90
39951;DHT22;25629;51.444;-2.606;2023-06-22T13:30:27;31.40;99.90
39951;DHT22;25629;51.444;-2.606;2023-06-22T13:32:53;31.20;99.90
39951;DHT22;25629;51.444;-2.606;2023-06-22T13:35:18;31.10;99.90
39951;DHT22;25629;51.444;-2.606;2023-06-22T13:37:44;30.90;99.90
39951;DHT22;25629;51.444;-2.606;2023-06-22T13:40:10;30.70;99.90
39951;DHT22;25629;51.444;-2.606;2023-06-22T13:42:35;30.90;99.90
39951;DHT22;25629;51.444;-2.606;2023-06-22T13:45:01;31.00;99.90
39951;DHT22;25629;51.444;-2.606;2023-06-22T13:47:27;30.70;99.90
39951;DHT22;25629;51.444;-2.606;2023-06-22T13:49:52;30.90;99.90
39951;DHT22;25629;51.444;-2.606;2023-06-22T13:52:18;31.00;99.90
39951;DHT22;25629;51.444;-2.606;2023-06-22T13:54:43;31.40;99.90
39951;DHT22;25629;51.444;-2.606;2023-06-22T13:57:09;31.80;99.90
39951;DHT22;25629;51.444;-2.606;2023-06-22T13:59:34;31.90;99.90
39951;DHT22;25629;51.444;-2.606;2023-06-22T14:02:00;31.60;99.90
39951;DHT22;25629;51.444;-2.606;2023-06-22T14:04:26;31.70;99.90
39951;DHT22;25629;51.444;-2.606;2023-06-22T14:06:51;31.70;99.90
39951;DHT22;25629;51.444;-2.606;2023-06-22T14:09:17;32.00;99.90
39951;DHT22;25629;51.444;-2.606;2023-06-22T14:11:42;32.00;99.90
39951;DHT22;25629;51.444;-2.606;2023-06-22T14:14:08;31.70;99.90
39951;DHT22;25629;51.444;-2.606;2023-06-22T14:16:33;31.80;99.90
39951;DHT22;25629;51.444;-2.606;2023-06-22T14:18:59;31.80;99.90
39951;DHT22;25629;51.444;-2.606;2023-06-22T14:21:25;31.80;99.90
39951;DHT22;25629;51.444;-2.606;2023-06-22T14:23:51;31.50;99.90
39951;DHT22;25629;51.444;-2.606;2023-06-22T14:26:17;31.10;99.90
39951;DHT22;25629;51.444;-2.606;2023-06-22T14:28:45;31.30;99.90
39951;DHT22;25629;51.444;-2.606;2023-06-22T14:31:15;31.10;99.90
39951;DHT22;25629;51.444;-2.606;2023-06-22T14:33:44;30.90;99.90
39951;DHT22;25629;51.444;-2.606;2023-06-22T14:36:10;31.10;99.90
39951;DHT22;25629;51.444;-2.606;2023-06-22T14:38:36;31.20;99.90
39951;DHT22;25629;51.444;-2.606;2023-06-22T14:41:01;31.30;99.90
39951;DHT22;25629;51.444;-2.606;2023-06-22T14:43:27;31.40;99.90
39951;DHT22;25629;51.444;-2.606;2023-06-22T14:45:52;31.60;99.90
39951;DHT22;25629;51.444;-2.606;2023-06-22T14:48:18;31.90;99.90
39951;DHT22;25629;51.444;-2.606;2023-06-22T14:50:43;32.10;99.90
39951;DHT22;25629;51.444;-2.606;2023-06-22T14:53:09;32.20;99.90
39951;DHT22;25629;51.444;-2.606;2023-06-22T14:55:34;32.40;99.90
39951;DHT22;25629;51.444;-2.606;2023-06-22T14:58:00;32.40;99.90
39951;DHT22;25629;51.444;-2.606;2023-06-22T15:00:25;32.30;99.90
39951;DHT22;25629;51.444;-2.606;2023-06-22T15:02:51;32.40;99.90
39951;DHT22;25629;51.444;-2.606;2023-06-22T15:05:17;32.60;99.90
39951;DHT22;25629;51.444;-2.606;2023-06-22T15:07:42;32.60;99.90
39951;DHT22;25629;51.444;-2.606;2023-06-22T15:10:08;32.90;99.90
39951;DHT22;25629;51.444;-2.606;2023-06-22T15:12:34;32.70;99.90
39951;DHT22;25629;51.444;-2.606;2023-06-22T15:14:59;32.30;99.90
39951;DHT22;25629;51.444;-2.606;2023-06-22T15:17:25;32.10;99.90
39951;DHT22;25629;51.444;-2.606;2023-06-22T15:19:54;32.30;99.90
39951;DHT22;25629;51.444;-2.606;2023-06-22T15:22:20;32.30;99.90